sensor_id;sensor_type;location;lat;lon;timestamp;pressure;altitude;pressure_sealevel;temperature;humidity
65010;BME280;51556;50.002;22.014;2023-02-28T00:00:23;100496.19;;;0.63;57.76
65010;BME280;51556;50.002;22.014;2023-02-28T00:02:48;100498.35;;;0.60;57.77
65010;BME280;51556;50.002;22.014;2023-02-28T00:05:17;100500.45;;;0.56;58.04
65010;BME280;51556;50.002;22.014;2023-02-28T00:07:43;100501.90;;;0.48;58.04
65010;BME280;51556;50.002;22.014;2023-02-28T00:10:14;100505.20;;;0.43;58.30
65010;BME280;51556;50.002;22.014;2023-02-28T00:12:40;100506.92;;;0.43;58.27
65010;BME280;51556;50.002;22.014;2023-02-28T00:15:07;100505.04;;;0.43;58.19
65010;BME280;51556;50.002;22.014;2023-02-28T00:17:33;100510.27;;;0.44;58.19
65010;BME280;51556;50.002;22.014;2023-02-28T00:19:59;100512.34;;;0.44;58.15
65010;BME280;51556;50.002;22.014;2023-02-28T00:22:42;100515.59;;;0.43;58.36
65010;BME280;51556;50.002;22.014;2023-02-28T00:25:08;100516.00;;;0.40;58.36
65010;BME280;51556;50.002;22.014;2023-02-28T00:27:38;100517.85;;;0.37;58.17
65010;BME280;51556;50.002;22.014;2023-02-28T00:30:05;100515.30;;;0.34;58.35
65010;BME280;51556;50.002;22.014;2023-02-28T00:32:31;100516.77;;;0.26;58.50
65010;BME280;51556;50.002;22.014;2023-02-28T00:34:57;100513.95;;;0.20;58.72
65010;BME280;51556;50.002;22.014;2023-02-28T00:37:22;100510.24;;;0.13;58.78
65010;BME280;51556;50.002;22.014;2023-02-28T00:39:48;100507.48;;;0.09;59.08
65010;BME280;51556;50.002;22.014;2023-02-28T00:42:13;100505.42;;;0.04;59.20
65010;BME280;51556;50.002;22.014;2023-02-28T00:44:39;100500.98;;;0.00;59.51
65010;BME280;51556;50.002;22.014;2023-02-28T00:47:04;100504.77;;;-0.06;59.83
65010;BME280;51556;50.002;22.014;2023-02-28T00:49:30;100504.52;;;-0.13;59.84
65010;BME280;51556;50.002;22.014;2023-02-28T00:51:56;100500.04;;;-0.17;59.81
65010;BME280;51556;50.002;22.014;2023-02-28T00:54:22;100498.30;;;-0.17;59.81
65010;BME280;51556;50.002;22.014;2023-02-28T00:56:48;100500.00;;;-0.18;59.71
65010;BME280;51556;50.002;22.014;2023-02-28T00:59:15;100504.77;;;-0.15;59.86
65010;BME280;51556;50.002;22.014;2023-02-28T01:01:42;100506.77;;;-0.13;59.67
65010;BME280;51556;50.002;22.014;2023-02-28T01:04:08;100509.44;;;-0.15;59.64
65010;BME280;51556;50.002;22.014;2023-02-28T01:06:34;100506.73;;;-0.18;59.85
65010;BME280;51556;50.002;22.014;2023-02-28T01:09:00;100507.32;;;-0.21;59.78
65010;BME280;51556;50.002;22.014;2023-02-28T01:11:25;100509.66;;;-0.23;59.81
65010;BME280;51556;50.002;22.014;2023-02-28T01:13:51;100511.29;;;-0.26;59.72
65010;BME280;51556;50.002;22.014;2023-02-28T01:16:17;100512.39;;;-0.29;59.96
65010;BME280;51556;50.002;22.014;2023-02-28T01:18:42;100513.64;;;-0.33;60.08
65010;BME280;51556;50.002;22.014;2023-02-28T01:21:10;100511.41;;;-0.37;60.11
65010;BME280;51556;50.002;22.014;2023-02-28T01:23:36;100510.30;;;-0.39;60.15
65010;BME280;51556;50.002;22.014;2023-02-28T01:26:11;100510.46;;;-0.40;60.06
65010;BME280;51556;50.002;22.014;2023-02-28T01:28:37;100513.27;;;-0.44;60.22
65010;BME280;51556;50.002;22.014;2023-02-28T01:31:03;100514.52;;;-0.47;60.27
65010;BME280;51556;50.002;22.014;2023-02-28T01:33:28;100519.77;;;-0.50;60.33
65010;BME280;51556;50.002;22.014;2023-02-28T01:36:09;100518.86;;;-0.51;60.22
65010;BME280;51556;50.002;22.014;2023-02-28T01:38:35;100526.02;;;-0.49;60.50
65010;BME280;51556;50.002;22.014;2023-02-28T01:41:01;100524.82;;;-0.53;60.52
65010;BME280;51556;50.002;22.014;2023-02-28T01:43:55;100523.24;;;-0.58;60.31
65010;BME280;51556;50.002;22.014;2023-02-28T01:46:21;100520.76;;;-0.60;60.71
65010;BME280;51556;50.002;22.014;2023-02-28T01:48:52;100524.56;;;-0.64;61.01
65010;BME280;51556;50.002;22.014;2023-02-28T01:51:49;100517.42;;;-0.71;61.15
65010;BME280;51556;50.002;22.014;2023-02-28T01:54:26;100521.55;;;-0.76;61.23
65010;BME280;51556;50.002;22.014;2023-02-28T01:56:59;100522.21;;;-0.82;61.11
65010;BME280;51556;50.002;22.014;2023-02-28T02:00:08;100523.59;;;-0.82;61.23
65010;BME280;51556;50.002;22.014;2023-02-28T02:02:35;100531.86;;;-0.78;61.37
65010;BME280;51556;50.002;22.014;2023-02-28T02:05:08;100532.89;;;-0.78;61.59
65010;BME280;51556;50.002;22.014;2023-02-28T02:07:36;100535.29;;;-0.79;61.30
65010;BME280;51556;50.002;22.014;2023-02-28T02:10:11;100532.71;;;-0.83;61.35
65010;BME280;51556;50.002;22.014;2023-02-28T02:12:55;100531.59;;;-0.85;61.67
65010;BME280;51556;50.002;22.014;2023-02-28T02:30:08;100533.52;;;-0.84;62.28
65010;BME280;51556;50.002;22.014;2023-02-28T02:38:31;100525.83;;;-0.82;62.37
65010;BME280;51556;50.002;22.014;2023-02-28T02:41:11;100521.05;;;-0.89;62.45
65010;BME280;51556;50.002;22.014;2023-02-28T02:44:46;100514.54;;;-0.96;62.53
65010;BME280;51556;50.002;22.014;2023-02-28T02:46:45;100513.13;;;-1.01;62.23
65010;BME280;51556;50.002;22.014;2023-02-28T02:49:23;100509.87;;;-1.09;62.34
65010;BME280;51556;50.002;22.014;2023-02-28T02:51:49;100506.65;;;-1.13;62.50
65010;BME280;51556;50.002;22.014;2023-02-28T02:54:29;100506.95;;;-1.14;62.47
65010;BME280;51556;50.002;22.014;2023-02-28T02:57:02;100511.75;;;-1.15;62.38
65010;BME280;51556;50.002;22.014;2023-02-28T02:59:30;100510.02;;;-1.15;62.35
65010;BME280;51556;50.002;22.014;2023-02-28T03:02:00;100510.23;;;-1.18;62.37
65010;BME280;51556;50.002;22.014;2023-02-28T03:04:32;100512.30;;;-1.22;62.52
65010;BME280;51556;50.002;22.014;2023-02-28T03:06:58;100512.45;;;-1.23;62.22
65010;BME280;51556;50.002;22.014;2023-02-28T03:09:25;100512.42;;;-1.24;62.20
65010;BME280;51556;50.002;22.014;2023-02-28T03:11:53;100509.80;;;-1.28;62.36
65010;BME280;51556;50.002;22.014;2023-02-28T03:22:45;100521.18;;;-1.42;62.35
65010;BME280;51556;50.002;22.014;2023-02-28T03:30:15;100522.16;;;-1.48;62.37
65010;BME280;51556;50.002;22.014;2023-02-28T03:32:49;100535.42;;;-1.53;62.48
65010;BME280;51556;50.002;22.014;2023-02-28T03:35:21;100539.47;;;-1.55;62.56
65010;BME280;51556;50.002;22.014;2023-02-28T03:37:53;100536.34;;;-1.56;62.28
65010;BME280;51556;50.002;22.014;2023-02-28T03:40:23;100534.98;;;-1.55;62.42
65010;BME280;51556;50.002;22.014;2023-02-28T03:42:55;100536.44;;;-1.57;62.40
65010;BME280;51556;50.002;22.014;2023-02-28T03:45:26;100538.81;;;-1.59;62.45
65010;BME280;51556;50.002;22.014;2023-02-28T03:47:58;100541.84;;;-1.60;62.80
65010;BME280;51556;50.002;22.014;2023-02-28T03:50:37;100541.85;;;-1.60;62.70
65010;BME280;51556;50.002;22.014;2023-02-28T03:53:42;100543.45;;;-1.59;62.74
65010;BME280;51556;50.002;22.014;2023-02-28T03:56:16;100542.24;;;-1.55;63.00
65010;BME280;51556;50.002;22.014;2023-02-28T03:59:02;100542.98;;;-1.62;63.24
65010;BME280;51556;50.002;22.014;2023-02-28T04:04:23;100540.67;;;-1.75;63.31
65010;BME280;51556;50.002;22.014;2023-02-28T04:06:51;100537.73;;;-1.76;63.17
65010;BME280;51556;50.002;22.014;2023-02-28T04:09:17;100538.88;;;-1.73;63.14
65010;BME280;51556;50.002;22.014;2023-02-28T04:11:50;100540.56;;;-1.78;63.27
65010;BME280;51556;50.002;22.014;2023-02-28T04:14:19;100537.56;;;-1.83;63.06
65010;BME280;51556;50.002;22.014;2023-02-28T04:16:45;100534.14;;;-1.83;63.04
65010;BME280;51556;50.002;22.014;2023-02-28T04:19:12;100534.98;;;-1.84;63.13
65010;BME280;51556;50.002;22.014;2023-02-28T04:21:43;100536.26;;;-1.86;62.93
65010;BME280;51556;50.002;22.014;2023-02-28T04:24:13;100537.27;;;-1.87;63.14
65010;BME280;51556;50.002;22.014;2023-02-28T04:26:41;100539.78;;;-1.92;63.09
65010;BME280;51556;50.002;22.014;2023-02-28T04:29:09;100543.23;;;-1.92;63.09
65010;BME280;51556;50.002;22.014;2023-02-28T04:31:35;100546.70;;;-1.88;63.08
65010;BME280;51556;50.002;22.014;2023-02-28T04:34:01;100548.16;;;-1.90;62.93
65010;BME280;51556;50.002;22.014;2023-02-28T04:36:27;100550.64;;;-1.89;62.95
65010;BME280;51556;50.002;22.014;2023-02-28T04:38:52;100550.72;;;-1.91;62.84
65010;BME280;51556;50.002;22.014;2023-02-28T04:41:21;100554.86;;;-1.91;63.00
65010;BME280;51556;50.002;22.014;2023-02-28T04:43:47;100549.30;;;-1.92;63.04
65010;BME280;51556;50.002;22.014;2023-02-28T04:46:13;100546.52;;;-1.88;62.97
65010;BME280;51556;50.002;22.014;2023-02-28T04:48:39;100546.70;;;-1.88;62.81
65010;BME280;51556;50.002;22.014;2023-02-28T04:51:09;100543.67;;;-1.90;62.69
65010;BME280;51556;50.002;22.014;2023-02-28T04:53:36;100545.05;;;-1.90;62.88
65010;BME280;51556;50.002;22.014;2023-02-28T04:56:02;100550.64;;;-1.97;62.75
65010;BME280;51556;50.002;22.014;2023-02-28T04:58:28;100553.09;;;-2.00;62.89
65010;BME280;51556;50.002;22.014;2023-02-28T05:01:04;100557.38;;;-2.00;62.74
65010;BME280;51556;50.002;22.014;2023-02-28T05:03:40;100560.63;;;-2.01;62.68
65010;BME280;51556;50.002;22.014;2023-02-28T05:06:06;100564.95;;;-1.97;62.95
65010;BME280;51556;50.002;22.014;2023-02-28T05:08:33;100566.07;;;-1.91;62.73
65010;BME280;51556;50.002;22.014;2023-02-28T05:10:58;100570.41;;;-1.86;62.91
65010;BME280;51556;50.002;22.014;2023-02-28T05:13:26;100569.71;;;-1.82;62.89
65010;BME280;51556;50.002;22.014;2023-02-28T05:15:52;100576.92;;;-1.83;63.15
65010;BME280;51556;50.002;22.014;2023-02-28T05:18:17;100577.09;;;-1.88;63.50
65010;BME280;51556;50.002;22.014;2023-02-28T05:20:43;100580.30;;;-1.89;63.53
65010;BME280;51556;50.002;22.014;2023-02-28T05:23:11;100580.30;;;-1.89;63.66
65010;BME280;51556;50.002;22.014;2023-02-28T05:25:38;100578.83;;;-1.91;63.65
65010;BME280;51556;50.002;22.014;2023-02-28T05:28:04;100577.95;;;-1.92;63.77
65010;BME280;51556;50.002;22.014;2023-02-28T05:30:30;100576.67;;;-1.93;63.87
65010;BME280;51556;50.002;22.014;2023-02-28T05:32:57;100579.70;;;-1.95;63.69
65010;BME280;51556;50.002;22.014;2023-02-28T05:35:22;100584.63;;;-1.97;63.75
65010;BME280;51556;50.002;22.014;2023-02-28T05:37:47;100583.36;;;-1.98;63.68
65010;BME280;51556;50.002;22.014;2023-02-28T05:40:13;100582.64;;;-2.03;63.61
65010;BME280;51556;50.002;22.014;2023-02-28T05:42:39;100586.27;;;-2.06;63.83
65010;BME280;51556;50.002;22.014;2023-02-28T05:45:05;100590.67;;;-2.08;63.83
65010;BME280;51556;50.002;22.014;2023-02-28T05:47:32;100591.70;;;-2.09;63.98
65010;BME280;51556;50.002;22.014;2023-02-28T05:49:57;100593.41;;;-2.09;63.97
65010;BME280;51556;50.002;22.014;2023-02-28T05:52:23;100592.30;;;-2.11;63.95
65010;BME280;51556;50.002;22.014;2023-02-28T05:54:49;100596.61;;;-2.11;64.01
65010;BME280;51556;50.002;22.014;2023-02-28T05:57:17;100599.83;;;-2.08;63.98
65010;BME280;51556;50.002;22.014;2023-02-28T05:59:43;100598.34;;;-2.07;64.00
65010;BME280;51556;50.002;22.014;2023-02-28T06:02:16;100603.86;;;-2.03;64.11
65010;BME280;51556;50.002;22.014;2023-02-28T06:04:43;100607.17;;;-2.03;63.97
65010;BME280;51556;50.002;22.014;2023-02-28T06:07:09;100614.32;;;-1.96;64.08
65010;BME280;51556;50.002;22.014;2023-02-28T06:09:35;100616.45;;;-1.91;64.18
65010;BME280;51556;50.002;22.014;2023-02-28T06:12:03;100619.79;;;-1.86;63.86
65010;BME280;51556;50.002;22.014;2023-02-28T06:14:31;100623.33;;;-1.84;63.99
65010;BME280;51556;50.002;22.014;2023-02-28T06:16:57;100627.63;;;-1.76;64.31
65010;BME280;51556;50.002;22.014;2023-02-28T06:19:23;100628.77;;;-1.71;64.25
65010;BME280;51556;50.002;22.014;2023-02-28T06:21:51;100631.02;;;-1.62;64.28
65010;BME280;51556;50.002;22.014;2023-02-28T06:24:21;100631.36;;;-1.55;64.33
65010;BME280;51556;50.002;22.014;2023-02-28T06:26:47;100631.47;;;-1.52;64.46
65010;BME280;51556;50.002;22.014;2023-02-28T06:29:14;100633.96;;;-1.50;64.54
65010;BME280;51556;50.002;22.014;2023-02-28T06:31:46;100638.38;;;-1.44;64.84
65010;BME280;51556;50.002;22.014;2023-02-28T06:34:13;100639.49;;;-1.38;64.83
65010;BME280;51556;50.002;22.014;2023-02-28T06:36:40;100642.77;;;-1.30;65.00
65010;BME280;51556;50.002;22.014;2023-02-28T06:39:06;100642.23;;;-1.22;64.90
65010;BME280;51556;50.002;22.014;2023-02-28T06:41:32;100642.61;;;-1.17;65.02
65010;BME280;51556;50.002;22.014;2023-02-28T06:44:08;100643.85;;;-1.12;64.90
65010;BME280;51556;50.002;22.014;2023-02-28T06:46:38;100643.83;;;-1.08;65.10
65010;BME280;51556;50.002;22.014;2023-02-28T06:49:04;100647.20;;;-1.10;65.36
65010;BME280;51556;50.002;22.014;2023-02-28T06:51:30;100650.09;;;-1.03;65.46
65010;BME280;51556;50.002;22.014;2023-02-28T06:53:55;100646.55;;;-0.93;65.68
65010;BME280;51556;50.002;22.014;2023-02-28T06:56:21;100643.33;;;-0.83;65.78
65010;BME280;51556;50.002;22.014;2023-02-28T06:58:48;100645.73;;;-0.79;65.82
65010;BME280;51556;50.002;22.014;2023-02-28T07:01:14;100644.98;;;-0.72;65.69
65010;BME280;51556;50.002;22.014;2023-02-28T07:03:40;100639.35;;;-0.65;65.87
65010;BME280;51556;50.002;22.014;2023-02-28T07:06:06;100636.84;;;-0.59;65.79
65010;BME280;51556;50.002;22.014;2023-02-28T07:08:32;100642.30;;;-0.57;65.98
65010;BME280;51556;50.002;22.014;2023-02-28T07:10:58;100639.63;;;-0.54;66.01
65010;BME280;51556;50.002;22.014;2023-02-28T07:13:23;100641.85;;;-0.51;66.12
65010;BME280;51556;50.002;22.014;2023-02-28T07:15:56;100643.52;;;-0.47;66.11
65010;BME280;51556;50.002;22.014;2023-02-28T07:18:22;100642.52;;;-0.38;66.22
65010;BME280;51556;50.002;22.014;2023-02-28T07:20:48;100646.73;;;-0.31;66.00
65010;BME280;51556;50.002;22.014;2023-02-28T07:23:13;100645.41;;;-0.34;66.25
65010;BME280;51556;50.002;22.014;2023-02-28T07:25:39;100646.36;;;-0.28;66.12
65010;BME280;51556;50.002;22.014;2023-02-28T07:28:04;100643.95;;;-0.23;66.34
65010;BME280;51556;50.002;22.014;2023-02-28T07:30:30;100643.98;;;-0.22;66.23
65010;BME280;51556;50.002;22.014;2023-02-28T07:32:55;100640.23;;;-0.16;66.49
65010;BME280;51556;50.002;22.014;2023-02-28T07:35:21;100643.83;;;-0.09;66.40
65010;BME280;51556;50.002;22.014;2023-02-28T07:37:47;100641.86;;;-0.01;66.28
65010;BME280;51556;50.002;22.014;2023-02-28T07:40:13;100638.84;;;0.07;66.28
65010;BME280;51556;50.002;22.014;2023-02-28T07:42:40;100637.76;;;0.15;66.07
65010;BME280;51556;50.002;22.014;2023-02-28T07:45:06;100638.17;;;0.22;66.11
65010;BME280;51556;50.002;22.014;2023-02-28T07:47:32;100635.98;;;0.28;66.03
65010;BME280;51556;50.002;22.014;2023-02-28T07:49:58;100633.91;;;0.33;66.04
65010;BME280;51556;50.002;22.014;2023-02-28T07:52:24;100635.98;;;0.38;65.95
65010;BME280;51556;50.002;22.014;2023-02-28T07:54:50;100633.02;;;0.42;65.84
65010;BME280;51556;50.002;22.014;2023-02-28T07:57:16;100628.23;;;0.44;65.84
65010;BME280;51556;50.002;22.014;2023-02-28T07:59:42;100632.48;;;0.42;65.87
65010;BME280;51556;50.002;22.014;2023-02-28T08:02:15;100631.48;;;0.38;65.97
65010;BME280;51556;50.002;22.014;2023-02-28T08:04:41;100633.56;;;0.43;66.17
65010;BME280;51556;50.002;22.014;2023-02-28T08:07:06;100636.38;;;0.49;66.22
65010;BME280;51556;50.002;22.014;2023-02-28T08:09:32;100637.45;;;0.50;66.21
65010;BME280;51556;50.002;22.014;2023-02-28T08:11:58;100643.16;;;0.40;66.01
65010;BME280;51556;50.002;22.014;2023-02-28T08:14:23;100646.08;;;0.29;66.05
65010;BME280;51556;50.002;22.014;2023-02-28T08:16:49;100646.28;;;0.30;66.26
65010;BME280;51556;50.002;22.014;2023-02-28T08:19:14;100645.84;;;0.37;66.42
65010;BME280;51556;50.002;22.014;2023-02-28T08:21:40;100648.69;;;0.40;66.21
65010;BME280;51556;50.002;22.014;2023-02-28T08:24:05;100650.77;;;0.45;65.87
65010;BME280;51556;50.002;22.014;2023-02-28T08:26:32;100652.13;;;0.44;65.44
65010;BME280;51556;50.002;22.014;2023-02-28T08:28:58;100650.14;;;0.47;65.52
65010;BME280;51556;50.002;22.014;2023-02-28T08:31:23;100649.80;;;0.56;65.09
65010;BME280;51556;50.002;22.014;2023-02-28T08:33:49;100648.46;;;0.62;64.76
65010;BME280;51556;50.002;22.014;2023-02-28T08:36:16;100647.46;;;0.69;64.45
65010;BME280;51556;50.002;22.014;2023-02-28T08:38:43;100647.06;;;0.78;64.21
65010;BME280;51556;50.002;22.014;2023-02-28T08:41:11;100646.06;;;0.84;63.86
65010;BME280;51556;50.002;22.014;2023-02-28T08:43:37;100646.11;;;0.90;63.86
65010;BME280;51556;50.002;22.014;2023-02-28T08:46:04;100642.27;;;1.00;63.55
65010;BME280;51556;50.002;22.014;2023-02-28T08:48:31;100637.96;;;1.05;63.26
65010;BME280;51556;50.002;22.014;2023-02-28T08:51:00;100635.86;;;1.10;62.81
65010;BME280;51556;50.002;22.014;2023-02-28T08:53:26;100636.69;;;1.15;62.65
65010;BME280;51556;50.002;22.014;2023-02-28T08:55:56;100637.23;;;1.20;62.41
65010;BME280;51556;50.002;22.014;2023-02-28T08:58:22;100636.77;;;1.23;61.82
65010;BME280;51556;50.002;22.014;2023-02-28T09:00:47;100629.08;;;1.26;61.78
65010;BME280;51556;50.002;22.014;2023-02-28T09:03:13;100633.55;;;1.30;61.41
65010;BME280;51556;50.002;22.014;2023-02-28T09:05:38;100633.88;;;1.35;61.13
65010;BME280;51556;50.002;22.014;2023-02-28T09:08:04;100635.48;;;1.42;61.06
65010;BME280;51556;50.002;22.014;2023-02-28T09:10:29;100633.95;;;1.49;60.63
65010;BME280;51556;50.002;22.014;2023-02-28T09:12:55;100630.65;;;1.54;60.84
65010;BME280;51556;50.002;22.014;2023-02-28T09:15:20;100631.44;;;1.62;60.92
65010;BME280;51556;50.002;22.014;2023-02-28T09:17:45;100631.36;;;1.71;60.33
65010;BME280;51556;50.002;22.014;2023-02-28T09:20:11;100631.55;;;1.83;60.66
65010;BME280;51556;50.002;22.014;2023-02-28T09:22:37;100632.48;;;1.97;60.26
65010;BME280;51556;50.002;22.014;2023-02-28T09:25:02;100633.25;;;2.06;59.47
65010;BME280;51556;50.002;22.014;2023-02-28T09:27:28;100632.65;;;2.09;58.86
65010;BME280;51556;50.002;22.014;2023-02-28T09:29:53;100630.02;;;2.14;58.64
65010;BME280;51556;50.002;22.014;2023-02-28T09:32:19;100628.73;;;2.25;59.17
65010;BME280;51556;50.002;22.014;2023-02-28T09:34:44;100628.29;;;2.39;58.85
65010;BME280;51556;50.002;22.014;2023-02-28T09:37:10;100628.23;;;2.56;58.16
65010;BME280;51556;50.002;22.014;2023-02-28T09:39:35;100629.52;;;2.59;56.39
65010;BME280;51556;50.002;22.014;2023-02-28T09:42:02;100636.05;;;2.56;56.68
65010;BME280;51556;50.002;22.014;2023-02-28T09:44:35;100635.23;;;2.52;55.83
65010;BME280;51556;50.002;22.014;2023-02-28T09:47:13;100634.06;;;2.47;56.68
65010;BME280;51556;50.002;22.014;2023-02-28T09:49:43;100636.31;;;2.53;56.67
65010;BME280;51556;50.002;22.014;2023-02-28T09:52:16;100637.47;;;2.57;56.43
65010;BME280;51556;50.002;22.014;2023-02-28T09:54:42;100634.91;;;2.59;56.64
65010;BME280;51556;50.002;22.014;2023-02-28T09:57:37;100634.58;;;2.66;56.47
65010;BME280;51556;50.002;22.014;2023-02-28T10:00:17;100636.11;;;2.78;56.02
65010;BME280;51556;50.002;22.014;2023-02-28T10:05:29;100638.98;;;2.95;55.91
65010;BME280;51556;50.002;22.014;2023-02-28T10:08:10;100635.80;;;3.14;56.47
65010;BME280;51556;50.002;22.014;2023-02-28T10:10:50;100631.96;;;3.35;55.92
65010;BME280;51556;50.002;22.014;2023-02-28T10:13:49;100631.03;;;3.48;55.31
65010;BME280;51556;50.002;22.014;2023-02-28T10:18:54;100623.65;;;3.67;55.26
65010;BME280;51556;50.002;22.014;2023-02-28T10:21:28;100617.46;;;3.80;54.80
65010;BME280;51556;50.002;22.014;2023-02-28T10:24:05;100615.61;;;3.90;54.00
65010;BME280;51556;50.002;22.014;2023-02-28T10:26:36;100608.14;;;3.99;54.15
65010;BME280;51556;50.002;22.014;2023-02-28T10:29:02;100605.34;;;4.08;53.36
65010;BME280;51556;50.002;22.014;2023-02-28T10:31:28;100605.02;;;4.08;53.84
65010;BME280;51556;50.002;22.014;2023-02-28T10:33:53;100605.83;;;4.15;53.56
65010;BME280;51556;50.002;22.014;2023-02-28T10:36:23;100599.15;;;4.20;53.61
65010;BME280;51556;50.002;22.014;2023-02-28T10:38:49;100597.84;;;4.33;53.54
65010;BME280;51556;50.002;22.014;2023-02-28T10:41:30;100593.56;;;4.37;52.93
65010;BME280;51556;50.002;22.014;2023-02-28T10:44:32;100588.95;;;4.42;53.06
65010;BME280;51556;50.002;22.014;2023-02-28T10:46:57;100585.45;;;4.51;53.13
65010;BME280;51556;50.002;22.014;2023-02-28T10:49:26;100582.92;;;4.56;52.19
65010;BME280;51556;50.002;22.014;2023-02-28T10:52:02;100577.90;;;4.49;51.34
65010;BME280;51556;50.002;22.014;2023-02-28T10:54:36;100576.59;;;4.43;52.29
65010;BME280;51556;50.002;22.014;2023-02-28T10:59:40;100566.64;;;4.62;51.98
65010;BME280;51556;50.002;22.014;2023-02-28T11:02:28;100570.89;;;4.75;52.03
65010;BME280;51556;50.002;22.014;2023-02-28T11:04:54;100564.79;;;4.88;52.08
65010;BME280;51556;50.002;22.014;2023-02-28T11:07:22;100558.42;;;5.02;51.60
65010;BME280;51556;50.002;22.014;2023-02-28T11:09:50;100556.21;;;5.18;51.66
65010;BME280;51556;50.002;22.014;2023-02-28T11:12:26;100557.88;;;5.36;50.80
65010;BME280;51556;50.002;22.014;2023-02-28T11:15:00;100555.02;;;5.56;51.41
65010;BME280;51556;50.002;22.014;2023-02-28T11:17:28;100555.90;;;5.70;50.99
65010;BME280;51556;50.002;22.014;2023-02-28T11:20:01;100557.59;;;5.78;50.29
65010;BME280;51556;50.002;22.014;2023-02-28T11:22:31;100555.91;;;5.83;50.25
65010;BME280;51556;50.002;22.014;2023-02-28T11:25:01;100552.00;;;5.89;49.99
65010;BME280;51556;50.002;22.014;2023-02-28T11:29:56;100550.30;;;5.93;49.60
65010;BME280;51556;50.002;22.014;2023-02-28T11:32:24;100551.87;;;5.93;49.30
65010;BME280;51556;50.002;22.014;2023-02-28T11:37:36;100551.53;;;5.83;49.20
65010;BME280;51556;50.002;22.014;2023-02-28T11:40:05;100558.79;;;5.77;49.36
65010;BME280;51556;50.002;22.014;2023-02-28T11:45:39;100553.11;;;5.83;49.67
65010;BME280;51556;50.002;22.014;2023-02-28T11:53:50;100558.92;;;5.61;48.67
65010;BME280;51556;50.002;22.014;2023-02-28T11:56:33;100561.84;;;5.57;48.84
65010;BME280;51556;50.002;22.014;2023-02-28T12:02:23;100557.67;;;5.46;49.02
65010;BME280;51556;50.002;22.014;2023-02-28T12:10:29;100549.44;;;5.43;49.96
65010;BME280;51556;50.002;22.014;2023-02-28T12:13:23;100549.98;;;5.45;49.81
65010;BME280;51556;50.002;22.014;2023-02-28T12:21:31;100549.70;;;5.64;49.92
65010;BME280;51556;50.002;22.014;2023-02-28T12:27:11;100539.00;;;5.73;49.56
65010;BME280;51556;50.002;22.014;2023-02-28T12:30:00;100534.66;;;5.75;49.66
65010;BME280;51556;50.002;22.014;2023-02-28T12:32:32;100528.21;;;5.76;48.94
65010;BME280;51556;50.002;22.014;2023-02-28T12:35:06;100528.77;;;5.66;49.11
65010;BME280;51556;50.002;22.014;2023-02-28T12:37:50;100529.16;;;5.69;49.65
65010;BME280;51556;50.002;22.014;2023-02-28T12:40:23;100526.98;;;5.75;49.42
65010;BME280;51556;50.002;22.014;2023-02-28T12:42:51;100529.58;;;5.74;49.46
65010;BME280;51556;50.002;22.014;2023-02-28T12:47:50;100526.83;;;5.78;48.96
65010;BME280;51556;50.002;22.014;2023-02-28T12:50:19;100526.69;;;5.80;49.55
65010;BME280;51556;50.002;22.014;2023-02-28T12:58:35;100520.40;;;5.93;48.00
65010;BME280;51556;50.002;22.014;2023-02-28T13:04:25;100519.75;;;5.71;48.69
65010;BME280;51556;50.002;22.014;2023-02-28T13:09:59;100508.48;;;5.77;49.01
65010;BME280;51556;50.002;22.014;2023-02-28T13:12:25;100506.86;;;5.87;48.96
65010;BME280;51556;50.002;22.014;2023-02-28T13:15:04;100505.58;;;5.95;48.94
65010;BME280;51556;50.002;22.014;2023-02-28T13:17:30;100496.73;;;6.02;48.63
65010;BME280;51556;50.002;22.014;2023-02-28T13:19:59;100496.28;;;6.09;48.17
65010;BME280;51556;50.002;22.014;2023-02-28T13:25:00;100488.72;;;6.39;48.59
65010;BME280;51556;50.002;22.014;2023-02-28T13:27:39;100486.61;;;7.06;48.41
65010;BME280;51556;50.002;22.014;2023-02-28T13:33:31;100479.59;;;8.29;43.10
65010;BME280;51556;50.002;22.014;2023-02-28T13:38:49;100476.12;;;8.56;43.65
65010;BME280;51556;50.002;22.014;2023-02-28T13:44:10;100476.26;;;9.11;43.42
65010;BME280;51556;50.002;22.014;2023-02-28T13:51:50;100464.53;;;8.84;43.44
65010;BME280;51556;50.002;22.014;2023-02-28T13:54:21;100461.73;;;8.72;43.48
65010;BME280;51556;50.002;22.014;2023-02-28T14:05:17;100458.03;;;8.37;42.76
65010;BME280;51556;50.002;22.014;2023-02-28T14:07:46;100461.18;;;8.33;43.50
65010;BME280;51556;50.002;22.014;2023-02-28T14:17:55;100454.20;;;8.48;42.04
65010;BME280;51556;50.002;22.014;2023-02-28T14:20:26;100452.95;;;8.63;42.81
65010;BME280;51556;50.002;22.014;2023-02-28T14:28:44;100454.52;;;8.77;40.89
65010;BME280;51556;50.002;22.014;2023-02-28T14:31:38;100455.05;;;8.42;41.96
65010;BME280;51556;50.002;22.014;2023-02-28T14:37:09;100453.94;;;8.18;42.12
65010;BME280;51556;50.002;22.014;2023-02-28T14:39:36;100450.95;;;8.06;42.57
65010;BME280;51556;50.002;22.014;2023-02-28T14:42:35;100454.79;;;7.97;42.20
65010;BME280;51556;50.002;22.014;2023-02-28T14:45:03;100454.77;;;7.90;42.95
65010;BME280;51556;50.002;22.014;2023-02-28T14:47:34;100453.75;;;8.00;42.74
65010;BME280;51556;50.002;22.014;2023-02-28T14:50:03;100455.16;;;8.05;42.26
65010;BME280;51556;50.002;22.014;2023-02-28T14:52:42;100448.99;;;7.96;42.81
65010;BME280;51556;50.002;22.014;2023-02-28T14:55:17;100451.84;;;8.13;43.08
65010;BME280;51556;50.002;22.014;2023-02-28T14:57:55;100450.98;;;8.26;42.51
65010;BME280;51556;50.002;22.014;2023-02-28T15:00:23;100451.55;;;8.37;42.27
65010;BME280;51556;50.002;22.014;2023-02-28T15:02:49;100450.16;;;8.50;42.55
65010;BME280;51556;50.002;22.014;2023-02-28T15:07:47;100445.60;;;8.51;42.05
65010;BME280;51556;50.002;22.014;2023-02-28T15:10:16;100443.48;;;8.41;42.16
65010;BME280;51556;50.002;22.014;2023-02-28T15:15:17;100446.55;;;8.00;42.09